createdAt,value
2018-10-19T00:02:11.462Z,97547.81
2018-10-19T00:04:40.667Z,97544.36
2018-10-19T00:07:08.964Z,97538.23
2018-10-19T00:09:37.440Z,97543.11
2018-10-19T00:12:06.678Z,97537.02
2018-10-19T00:14:34.951Z,97542.94
2018-10-19T00:17:03.314Z,97543.03
2018-10-19T00:19:45.694Z,97539.58
2018-10-19T00:22:13.962Z,97530.68
2018-10-19T00:24:42.231Z,97532.59
2018-10-19T00:27:10.592Z,97529.87
2018-10-19T00:29:38.808Z,97531.33
2018-10-19T00:32:07.111Z,97532.94
2018-10-19T00:34:35.383Z,97534.91
2018-10-19T00:37:03.754Z,97535.66
2018-10-19T00:39:32.036Z,97538.02
2018-10-19T00:42:00.319Z,97534.77
2018-10-19T00:44:28.592Z,97535.23
2018-10-19T00:46:56.896Z,97532.75
2018-10-19T00:49:25.164Z,97526.80
2018-10-19T00:51:53.458Z,97519.80
2018-10-19T00:54:21.723Z,97520.06
2018-10-19T00:56:50.004Z,97517.08
2018-10-19T00:59:18.291Z,97514.20
2018-10-19T01:01:46.587Z,97516.46
2018-10-19T01:04:14.875Z,97514.53
2018-10-19T01:06:43.148Z,97517.31
2018-10-19T01:09:11.991Z,97517.61
2018-10-19T01:11:40.243Z,97520.78
2018-10-19T01:14:08.526Z,97514.83
2018-10-19T01:16:36.799Z,97512.02
2018-10-19T01:19:05.359Z,97510.38
2018-10-19T01:21:33.632Z,97508.32
2018-10-19T01:24:01.967Z,97509.95
2018-10-19T01:26:30.234Z,97510.61
2018-10-19T01:28:58.547Z,97512.28
2018-10-19T01:31:26.804Z,97512.05
2018-10-19T01:33:55.090Z,97511.76
2018-10-19T01:36:27.536Z,97507.27
2018-10-19T01:38:55.846Z,97511.66
2018-10-19T01:41:24.123Z,97504.79
2018-10-19T01:43:52.403Z,97506.78
2018-10-19T01:46:20.691Z,97517.70
2018-10-19T01:48:49.000Z,97512.58
2018-10-19T01:51:17.356Z,97507.47
2018-10-19T01:53:45.587Z,97504.34
2018-10-19T01:56:13.852Z,97501.39
2018-10-19T01:58:42.613Z,97500.37
2018-10-19T02:01:10.871Z,97503.84
2018-10-19T02:03:39.192Z,97508.42
2018-10-19T02:06:07.487Z,97503.05
2018-10-19T02:08:35.771Z,97511.03
2018-10-19T02:11:04.039Z,97500.37
2018-10-19T02:13:32.338Z,97499.66
2018-10-19T02:16:00.615Z,97501.52
2018-10-19T02:18:28.904Z,97506.98
2018-10-19T02:20:57.229Z,97500.90
2018-10-19T02:23:25.492Z,97499.33
2018-10-19T02:25:53.828Z,97504.69
2018-10-19T02:28:22.143Z,97502.47
2018-10-19T02:30:50.439Z,97502.47
2018-10-19T02:33:18.802Z,97501.09
2018-10-19T02:35:47.027Z,97497.37
2018-10-19T02:38:15.320Z,97499.23
2018-10-19T02:40:43.604Z,97502.83
2018-10-19T02:43:12.002Z,97504.62
2018-10-19T02:45:41.827Z,97506.13
2018-10-19T02:48:10.879Z,97510.11
2018-10-19T02:50:39.176Z,97501.39
2018-10-19T02:53:07.559Z,97508.40
2018-10-19T02:55:35.859Z,97505.19
2018-10-19T02:58:04.187Z,97509.77
2018-10-19T03:00:32.487Z,97505.54
2018-10-19T03:03:00.828Z,97515.45
2018-10-19T03:05:29.081Z,97519.42
2018-10-19T03:07:57.386Z,97517.43
2018-10-19T03:10:25.675Z,97519.80
2018-10-19T03:12:53.947Z,97520.67
2018-10-19T03:15:22.259Z,97528.14
2018-10-19T03:19:19.689Z,97523.73
2018-10-19T03:21:47.955Z,97526.92
2018-10-19T03:24:16.253Z,97521.27
2018-10-19T03:26:44.532Z,97522.02
2018-10-19T03:29:12.852Z,97521.47
2018-10-19T03:31:41.141Z,97516.68
2018-10-19T03:34:09.469Z,97520.70
2018-10-19T03:36:37.734Z,97513.53
2018-10-19T03:39:07.260Z,97510.23
2018-10-19T03:41:35.508Z,97519.55
2018-10-19T03:44:03.795Z,97515.06
2018-10-19T03:46:32.106Z,97518.35
2018-10-19T03:49:00.388Z,97518.48
2018-10-19T03:51:28.683Z,97515.61
2018-10-19T03:53:56.963Z,97520.12
2018-10-19T03:56:25.252Z,97522.80
2018-10-19T03:58:53.529Z,97528.16
2018-10-19T04:01:21.832Z,97526.92
2018-10-19T04:03:50.107Z,97519.62
2018-10-19T04:06:18.411Z,97523.45
2018-10-19T04:08:47.091Z,97523.16
2018-10-19T04:11:15.438Z,97526.92
2018-10-19T04:13:44.064Z,97529.99
2018-10-19T04:16:12.517Z,97527.60
2018-10-19T04:18:40.794Z,97524.27
2018-10-19T04:21:09.173Z,97518.35
2018-10-19T04:23:37.492Z,97523.45
2018-10-19T04:26:06.074Z,97521.53
2018-10-19T04:28:34.359Z,97521.01
2018-10-19T04:31:02.668Z,97523.66
2018-10-19T04:33:31.407Z,97524.31
2018-10-19T04:35:59.696Z,97531.54
2018-10-19T04:38:27.972Z,97532.81
2018-10-19T04:40:56.332Z,97532.31
2018-10-19T04:43:27.504Z,97537.47
2018-10-19T04:45:55.849Z,97532.26
2018-10-19T04:48:24.126Z,97532.44
2018-10-19T04:50:52.453Z,97529.60
2018-10-19T04:53:20.748Z,97537.95
2018-10-19T04:55:49.035Z,97534.13
2018-10-19T04:58:17.303Z,97542.47
2018-10-19T05:00:45.604Z,97547.91
2018-10-19T05:03:13.962Z,97542.64
2018-10-19T05:05:42.257Z,97537.42
2018-10-19T05:08:10.543Z,97546.29
2018-10-19T05:10:38.788Z,97543.22
2018-10-19T05:13:07.170Z,97546.29
2018-10-19T05:15:35.412Z,97553.00
2018-10-19T05:18:04.024Z,97545.70
2018-10-19T05:20:32.303Z,97542.49
2018-10-19T05:23:00.659Z,97544.66
2018-10-19T05:25:28.907Z,97542.88
2018-10-19T05:27:57.219Z,97550.61
2018-10-19T05:30:25.818Z,97542.55
2018-10-19T05:32:54.211Z,97537.56
2018-10-19T05:35:22.451Z,97548.98
2018-10-19T05:37:50.747Z,97546.37
2018-10-19T05:40:19.053Z,97539.67
2018-10-19T05:42:47.356Z,97546.61
2018-10-19T05:45:15.643Z,97548.41
2018-10-19T05:47:43.948Z,97560.41
2018-10-19T05:50:12.842Z,97556.55
2018-10-19T05:52:41.064Z,97555.79
2018-10-19T05:55:10.191Z,97560.98
2018-10-19T05:57:38.683Z,97556.44
2018-10-19T06:00:08.136Z,97563.14
2018-10-19T06:02:36.489Z,97559.70
2018-10-19T06:05:05.058Z,97565.07
2018-10-19T06:07:33.336Z,97562.39
2018-10-19T06:10:01.616Z,97564.48
2018-10-19T06:12:29.917Z,97566.27
2018-10-19T06:14:58.247Z,97558.55
2018-10-19T06:17:26.572Z,97564.00
2018-10-19T06:19:54.881Z,97572.81
2018-10-19T06:22:23.216Z,97570.71
2018-10-19T06:24:51.503Z,97574.71
2018-10-19T06:27:20.063Z,97574.63
2018-10-19T06:29:48.512Z,97576.28
2018-10-19T06:32:17.214Z,97584.91
2018-10-19T06:34:45.531Z,97580.69
2018-10-19T06:37:13.829Z,97579.98
2018-10-19T06:39:42.243Z,97576.09
2018-10-19T06:42:10.613Z,97576.33
2018-10-19T06:44:38.911Z,97577.37
2018-10-19T06:47:07.436Z,97576.77
2018-10-19T06:49:35.714Z,97579.05
2018-10-19T06:52:04.038Z,97587.28
2018-10-19T06:54:32.371Z,97585.91
2018-10-19T06:57:00.696Z,97585.86
2018-10-19T06:59:29.109Z,97586.85
2018-10-19T07:01:57.411Z,97587.03
2018-10-19T07:04:25.676Z,97584.00
2018-10-19T07:06:53.999Z,97588.32
2018-10-19T07:09:22.529Z,97592.19
2018-10-19T07:11:50.857Z,97600.55
2018-10-19T07:14:19.156Z,97596.45
2018-10-19T07:16:47.597Z,97601.20
2018-10-19T07:19:15.912Z,97596.45
2018-10-19T07:21:44.286Z,97597.92
2018-10-19T07:24:12.788Z,97603.36
2018-10-19T07:26:41.111Z,97606.38
2018-10-19T07:29:09.516Z,97608.70
2018-10-19T07:31:37.769Z,97609.31
2018-10-19T07:34:06.095Z,97610.92
2018-10-19T07:36:34.554Z,97620.05
2018-10-19T07:39:02.855Z,97615.23
2018-10-19T07:41:31.171Z,97620.14
2018-10-19T07:43:59.528Z,97620.81
2018-10-19T07:46:27.799Z,97621.88
2018-10-19T07:48:56.119Z,97619.68
2018-10-19T07:51:24.468Z,97621.19
2018-10-19T07:53:52.841Z,97622.42
2018-10-19T07:56:21.131Z,97628.60
2018-10-19T07:58:49.432Z,97629.77
2018-10-19T08:01:17.833Z,97632.28
2018-10-19T08:03:46.056Z,97634.62
2018-10-19T08:06:14.386Z,97637.89
2018-10-19T08:08:42.703Z,97638.83
2018-10-19T08:11:11.201Z,97642.78
2018-10-19T08:13:39.475Z,97639.24
2018-10-19T08:16:07.776Z,97639.98
2018-10-19T08:18:36.085Z,97644.07
2018-10-19T08:21:04.961Z,97640.08
2018-10-19T08:23:33.230Z,97633.04
2018-10-19T08:26:01.885Z,97631.65
2018-10-19T08:28:30.146Z,97634.14
2018-10-19T08:30:58.447Z,97640.66
2018-10-19T08:33:26.809Z,97632.22
2018-10-19T08:35:55.113Z,97629.03
2018-10-19T08:38:23.430Z,97634.44
2018-10-19T08:40:51.885Z,97634.22
2018-10-19T08:43:21.232Z,97628.38
2018-10-19T08:45:49.522Z,97633.58
2018-10-19T08:48:17.859Z,97634.39
2018-10-19T08:50:46.152Z,97634.55
2018-10-19T08:53:14.534Z,97644.26
2018-10-19T08:55:42.819Z,97637.58
2018-10-19T08:58:11.171Z,97636.84
2018-10-19T09:00:39.443Z,97640.50
2018-10-19T09:03:07.756Z,97641.80
2018-10-19T09:05:36.063Z,97641.95
2018-10-19T09:08:04.383Z,97638.33
2018-10-19T09:10:32.675Z,97635.11
2018-10-19T09:13:00.987Z,97635.02
2018-10-19T09:15:29.292Z,97627.55
2018-10-19T09:17:57.592Z,97628.45
2018-10-19T09:20:25.883Z,97623.32
2018-10-19T09:22:54.604Z,97621.74
2018-10-19T09:25:22.931Z,97625.53
2018-10-19T09:27:51.250Z,97625.88
2018-10-19T09:30:19.596Z,97628.64
2018-10-19T09:32:47.931Z,97616.93
2018-10-19T09:35:16.342Z,97631.93
2018-10-19T09:37:44.567Z,97634.16
2018-10-19T09:40:12.882Z,97638.67
2018-10-19T09:42:41.213Z,97642.80
2018-10-19T09:45:09.953Z,97633.41
2018-10-19T09:47:38.267Z,97631.83
2018-10-19T09:50:07.106Z,97630.77
2018-10-19T09:52:36.147Z,97627.39
2018-10-19T09:55:05.117Z,97627.53
2018-10-19T09:57:33.367Z,97623.42
2018-10-19T10:00:01.687Z,97632.25
2018-10-19T10:02:30.003Z,97625.27
2018-10-19T10:04:58.367Z,97627.58
2018-10-19T10:07:27.063Z,97627.80
2018-10-19T10:09:55.603Z,97622.87
2018-10-19T10:12:23.899Z,97623.20
2018-10-19T10:14:52.314Z,97629.34
2018-10-19T10:17:20.527Z,97625.84
2018-10-19T10:19:48.839Z,97621.81
2018-10-19T10:22:17.227Z,97622.17
2018-10-19T10:24:45.578Z,97624.30
2018-10-19T10:27:13.837Z,97625.24
2018-10-19T10:29:42.147Z,97618.53
2018-10-19T10:32:10.488Z,97622.99
2018-10-19T10:34:39.068Z,97625.91
2018-10-19T10:37:07.394Z,97615.59
2018-10-19T10:39:35.751Z,97612.56
2018-10-19T10:42:04.430Z,97610.92
2018-10-19T10:44:32.754Z,97610.55
2018-10-19T10:47:01.055Z,97615.52
2018-10-19T10:49:29.385Z,97622.22
2018-10-19T10:51:57.735Z,97620.36
2018-10-19T10:54:26.042Z,97613.64
2018-10-19T10:56:54.358Z,97609.42
2018-10-19T10:59:22.675Z,97604.23
2018-10-19T11:01:50.984Z,97605.05
2018-10-19T11:04:19.332Z,97602.89
2018-10-19T11:06:47.635Z,97594.13
2018-10-19T11:09:16.579Z,97597.23
2018-10-19T11:11:44.887Z,97595.05
2018-10-19T11:14:13.232Z,97581.18
2018-10-19T11:16:41.543Z,97585.71
2018-10-19T11:19:09.969Z,97587.02
2018-10-19T11:21:38.383Z,97577.19
2018-10-19T11:24:06.744Z,97573.78
2018-10-19T11:26:35.056Z,97571.21
2018-10-19T11:29:03.363Z,97566.27
2018-10-19T11:31:31.698Z,97564.02
2018-10-19T11:34:00.023Z,97559.65
2018-10-19T11:36:28.408Z,97563.34
2018-10-19T11:38:56.733Z,97561.65
2018-10-19T11:41:25.051Z,97557.18
2018-10-19T11:43:53.344Z,97557.78
2018-10-19T11:46:21.900Z,97550.83
2018-10-19T11:48:50.343Z,97546.00
2018-10-19T11:51:18.908Z,97546.88
2018-10-19T11:53:47.220Z,97553.79
2018-10-19T11:56:15.547Z,97558.12
2018-10-19T11:58:43.855Z,97544.86
2018-10-19T12:01:12.246Z,97545.97
2018-10-19T12:03:40.584Z,97545.24
2018-10-19T12:06:08.859Z,97560.09
2018-10-19T12:08:37.163Z,97555.48
2018-10-19T12:11:05.995Z,97552.11
2018-10-19T12:13:34.303Z,97543.89
2018-10-19T12:16:02.623Z,97539.69
2018-10-19T12:18:30.963Z,97540.91
2018-10-19T12:20:59.373Z,97528.51
2018-10-19T12:23:27.631Z,97532.72
2018-10-19T12:25:56.009Z,97527.90
2018-10-19T12:28:24.275Z,97532.25
2018-10-19T12:30:52.600Z,97525.45
2018-10-19T12:33:20.910Z,97530.17
2018-10-19T12:35:49.232Z,97535.53
2018-10-19T12:38:17.535Z,97531.83
2018-10-19T12:40:45.883Z,97533.11
2018-10-19T12:43:14.254Z,97533.44
2018-10-19T12:46:51.539Z,97534.98
2018-10-19T12:49:22.131Z,97527.06
2018-10-19T12:51:50.477Z,97529.38
2018-10-19T12:54:18.950Z,97523.95
2018-10-19T12:56:47.202Z,97531.69
2018-10-19T12:59:15.602Z,97526.41
2018-10-19T13:01:43.931Z,97527.11
2018-10-19T13:04:12.244Z,97513.63
2018-10-19T13:06:40.548Z,97518.47
2018-10-19T13:09:10.791Z,97515.29
2018-10-19T13:11:39.167Z,97512.34
2018-10-19T13:14:07.479Z,97514.57
2018-10-19T13:16:35.792Z,97514.92
2018-10-19T13:19:04.160Z,97508.75
2018-10-19T13:21:32.455Z,97512.12
2018-10-19T13:24:00.805Z,97519.88
2018-10-19T13:26:29.111Z,97511.23
2018-10-19T13:28:57.421Z,97515.10
2018-10-19T13:31:25.730Z,97510.31
2018-10-19T13:33:54.216Z,97510.93
2018-10-19T13:36:22.557Z,97510.70
2018-10-19T13:38:50.859Z,97506.49
2018-10-19T13:41:19.213Z,97518.84
2018-10-19T13:43:47.502Z,97516.73
2018-10-19T13:46:15.862Z,97512.62
2018-10-19T13:48:44.155Z,97512.31
2018-10-19T13:51:12.623Z,97516.22
2018-10-19T13:53:40.817Z,97507.75
2018-10-19T13:56:09.135Z,97506.95
2018-10-19T13:58:37.444Z,97509.59
2018-10-19T14:01:06.552Z,97504.91
2018-10-19T14:03:34.847Z,97505.64
2018-10-19T14:06:03.172Z,97506.34
2018-10-19T14:08:31.467Z,97501.70
2018-10-19T14:10:59.806Z,97507.56
2018-10-19T14:13:28.100Z,97494.14
2018-10-19T14:15:56.408Z,97492.83
2018-10-19T14:18:24.731Z,97493.19
2018-10-19T14:20:53.050Z,97496.98
2018-10-19T14:23:21.363Z,97502.13
2018-10-19T14:25:49.687Z,97499.70
2018-10-19T14:28:18.011Z,97492.22
2018-10-19T14:30:46.333Z,97498.02
2018-10-19T14:33:14.745Z,97504.81
2018-10-19T14:35:42.974Z,97501.11
2018-10-19T14:38:11.316Z,97493.72
2018-10-19T14:40:39.614Z,97501.41
2018-10-19T14:43:08.639Z,97498.06
2018-10-19T14:45:36.952Z,97500.64
2018-10-19T14:48:05.312Z,97500.98
2018-10-19T14:50:35.102Z,97497.49
2018-10-19T14:53:03.462Z,97497.61
2018-10-19T14:55:32.100Z,97498.75
2018-10-19T14:58:00.414Z,97503.77
2018-10-19T15:00:28.735Z,97508.97
2018-10-19T15:02:57.248Z,97510.95
2018-10-19T15:05:25.525Z,97510.66
2018-10-19T15:07:53.856Z,97506.59
2018-10-19T15:10:23.084Z,97505.10
2018-10-19T15:12:51.763Z,97506.66
2018-10-19T15:15:22.369Z,97508.16
2018-10-19T15:17:50.932Z,97510.48
2018-10-19T15:20:19.895Z,97506.68
2018-10-19T15:22:48.227Z,97501.55
2018-10-19T15:25:16.533Z,97499.05
2018-10-19T15:27:45.985Z,97491.91
2018-10-19T15:30:16.068Z,97483.66
2018-10-19T15:32:44.303Z,97489.53
2018-10-19T15:35:12.611Z,97486.38
2018-10-19T15:37:41.230Z,97494.58
2018-10-19T15:40:10.211Z,97495.38
2018-10-19T15:42:38.738Z,97498.01
2018-10-19T15:45:08.738Z,97502.05
2018-10-19T15:47:37.037Z,97505.15
2018-10-19T15:50:05.498Z,97505.30
2018-10-19T15:52:33.812Z,97504.93
2018-10-19T15:55:02.139Z,97506.69
2018-10-19T15:57:30.496Z,97511.19
2018-10-19T15:59:58.853Z,97518.33
2018-10-19T16:02:27.119Z,97517.05
2018-10-19T16:04:55.422Z,97518.73
2018-10-19T16:07:23.733Z,97521.83
2018-10-19T16:09:52.041Z,97514.02
2018-10-19T16:12:20.366Z,97506.23
2018-10-19T16:14:48.689Z,97513.02
2018-10-19T16:17:16.999Z,97511.13
2018-10-19T16:19:45.303Z,97510.01
2018-10-19T16:22:13.635Z,97516.17
2018-10-19T16:24:41.975Z,97520.73
2018-10-19T16:27:10.304Z,97528.49
2018-10-19T16:29:39.010Z,97527.77
2018-10-19T16:32:07.798Z,97526.25
2018-10-19T16:34:36.266Z,97529.13
2018-10-19T16:37:04.696Z,97529.28
2018-10-19T16:39:32.979Z,97526.14
2018-10-19T16:42:01.334Z,97534.39
2018-10-19T16:44:29.599Z,97538.47
2018-10-19T16:46:58.531Z,97542.09
2018-10-19T16:49:26.833Z,97549.30
2018-10-19T16:51:55.147Z,97557.16
2018-10-19T16:54:23.479Z,97562.87
2018-10-19T16:56:51.790Z,97568.89
2018-10-19T16:59:20.107Z,97574.80
2018-10-19T17:01:48.404Z,97576.38
2018-10-19T17:04:16.862Z,97578.91
2018-10-19T17:06:45.160Z,97589.16
2018-10-19T17:09:14.398Z,97588.48
2018-10-19T17:11:43.059Z,97594.02
2018-10-19T17:14:11.652Z,97606.70
2018-10-19T17:16:39.983Z,97605.80
2018-10-19T17:19:08.746Z,97610.50
2018-10-19T17:21:37.107Z,97612.20
2018-10-19T17:24:05.549Z,97613.63
2018-10-19T17:26:33.894Z,97623.58
2018-10-19T17:29:02.251Z,97625.05
2018-10-19T17:31:30.705Z,97629.67
2018-10-19T17:33:58.996Z,97632.61
2018-10-19T17:36:27.288Z,97635.05
2018-10-19T17:38:55.604Z,97641.69
2018-10-19T17:41:23.952Z,97649.70
2018-10-19T17:43:52.288Z,97648.00
2018-10-19T17:46:20.582Z,97650.69
2018-10-19T17:48:48.940Z,97650.92
2018-10-19T17:51:17.295Z,97651.87
2018-10-19T17:53:45.572Z,97649.22
2018-10-19T17:56:13.852Z,97651.64
2018-10-19T17:58:42.176Z,97668.19
2018-10-19T18:01:10.491Z,97658.64
2018-10-19T18:03:39.262Z,97654.91
2018-10-19T18:06:07.594Z,97648.41
2018-10-19T18:08:36.232Z,97645.00
2018-10-19T18:11:05.023Z,97651.16
2018-10-19T18:13:33.331Z,97662.80
2018-10-19T18:16:01.692Z,97663.45
2018-10-19T18:18:30.108Z,97667.50
2018-10-19T18:20:58.392Z,97667.48
2018-10-19T18:23:26.833Z,97673.00
2018-10-19T18:25:55.061Z,97667.15
2018-10-19T18:28:23.348Z,97676.51
2018-10-19T18:30:51.679Z,97684.46
2018-10-19T18:33:20.004Z,97687.44
2018-10-19T18:35:48.303Z,97685.55
2018-10-19T18:38:16.761Z,97687.56
2018-10-19T18:40:45.435Z,97697.28
2018-10-19T18:43:13.730Z,97698.56
2018-10-19T18:45:42.007Z,97697.36
2018-10-19T18:48:10.340Z,97706.42
2018-10-19T18:50:38.670Z,97712.55
2018-10-19T18:53:07.050Z,97709.16
2018-10-19T18:55:35.263Z,97709.42
2018-10-19T18:58:03.615Z,97707.55
2018-10-19T19:00:31.890Z,97713.73
2018-10-19T19:03:00.278Z,97718.27
2018-10-19T19:05:28.579Z,97723.84
2018-10-19T19:07:56.926Z,97719.70
2018-10-19T19:10:25.186Z,97730.25
2018-10-19T19:12:58.567Z,97735.03
2018-10-19T19:15:27.161Z,97731.28
2018-10-19T19:17:55.451Z,97736.12
2018-10-19T19:20:25.612Z,97733.00
2018-10-19T19:22:53.945Z,97737.94
2018-10-19T19:25:27.407Z,97742.12
2018-10-19T19:27:55.708Z,97741.45
2018-10-19T19:30:24.123Z,97743.83
2018-10-19T19:32:57.724Z,97741.09
2018-10-19T19:35:26.049Z,97742.75
2018-10-19T19:37:54.367Z,97738.64
2018-10-19T19:40:22.680Z,97741.84
2018-10-19T19:42:52.603Z,97744.53
2018-10-19T19:45:20.915Z,97730.34
2018-10-19T19:47:54.300Z,97733.62
2018-10-19T19:50:22.595Z,97740.13
2018-10-19T19:52:50.975Z,97736.52
2018-10-19T19:55:19.332Z,97734.20
2018-10-19T19:57:47.612Z,97737.06
2018-10-19T20:00:15.913Z,97734.66
2018-10-19T20:02:44.223Z,97736.09
2018-10-19T20:05:12.552Z,97740.88
2018-10-19T20:07:41.067Z,97736.11
2018-10-19T20:10:09.392Z,97739.96
2018-10-19T20:12:37.858Z,97743.20
2018-10-19T20:15:07.587Z,97738.70
2018-10-19T20:17:35.927Z,97741.64
2018-10-19T20:20:04.310Z,97750.63
2018-10-19T20:22:32.600Z,97747.91
2018-10-19T20:25:00.872Z,97751.66
2018-10-19T20:27:29.174Z,97748.73
2018-10-19T20:29:57.443Z,97746.72
2018-10-19T20:32:25.802Z,97745.08
2018-10-19T20:34:54.213Z,97748.65
2018-10-19T20:37:22.519Z,97753.59
2018-10-19T20:39:50.803Z,97743.50
2018-10-19T20:42:19.116Z,97749.28
2018-10-19T20:44:47.416Z,97749.10
2018-10-19T20:47:15.981Z,97751.30
2018-10-19T20:49:44.203Z,97756.09
2018-10-19T20:52:12.506Z,97763.69
2018-10-19T20:54:40.811Z,97772.30
2018-10-19T20:57:09.316Z,97766.38
2018-10-19T20:59:37.616Z,97776.34
2018-10-19T21:02:06.191Z,97771.70
2018-10-19T21:04:34.439Z,97768.27
2018-10-19T21:07:02.807Z,97766.84
2018-10-19T21:09:31.122Z,97764.91
2018-10-19T21:11:59.439Z,97766.45
2018-10-19T21:14:27.727Z,97759.44
2018-10-19T21:16:56.057Z,97763.38
2018-10-19T21:19:24.399Z,97766.23
2018-10-19T21:21:52.650Z,97764.55
2018-10-19T21:24:20.936Z,97760.24
2018-10-19T21:26:49.402Z,97756.02
2018-10-19T21:29:18.024Z,97754.35
2018-10-19T21:31:46.419Z,97754.51
2018-10-19T21:34:14.704Z,97758.75
2018-10-19T21:36:43.083Z,97753.23
2018-10-19T21:39:12.227Z,97744.23
2018-10-19T21:41:41.027Z,97742.22
2018-10-19T21:44:09.377Z,97736.28
2018-10-19T21:46:37.996Z,97745.36
2018-10-19T21:49:06.496Z,97743.89
2018-10-19T21:51:34.986Z,97741.37
2018-10-19T21:54:03.286Z,97739.02
2018-10-19T21:56:31.699Z,97738.51
2018-10-19T21:59:00.034Z,97744.93
2018-10-19T22:01:28.860Z,97749.36
2018-10-19T22:03:57.163Z,97759.16
2018-10-19T22:06:25.443Z,97764.40
2018-10-19T22:08:53.735Z,97769.77
2018-10-19T22:11:22.620Z,97768.20
2018-10-19T22:13:50.891Z,97775.55
2018-10-19T22:16:19.171Z,97770.08
2018-10-19T22:18:47.455Z,97769.03
2018-10-19T22:21:15.740Z,97771.64
2018-10-19T22:23:44.061Z,97770.89
2018-10-19T22:26:12.395Z,97774.98
2018-10-19T22:28:40.651Z,97783.52
2018-10-19T22:31:09.096Z,97781.72
2018-10-19T22:33:37.361Z,97782.23
2018-10-19T22:36:05.682Z,97779.26
2018-10-19T22:38:33.992Z,97778.70
2018-10-19T22:41:02.311Z,97788.68
2018-10-19T22:43:30.627Z,97791.14
2018-10-19T22:45:58.920Z,97797.66
2018-10-19T22:48:27.235Z,97796.42
2018-10-19T22:50:55.519Z,97797.83
2018-10-19T22:53:23.816Z,97798.00
2018-10-19T22:55:52.107Z,97798.69
2018-10-19T22:58:20.443Z,97801.77
2018-10-19T23:00:48.731Z,97799.91
2018-10-19T23:03:17.026Z,97797.22
2018-10-19T23:05:45.500Z,97789.97
2018-10-19T23:08:13.807Z,97797.63
2018-10-19T23:10:42.588Z,97804.86
2018-10-19T23:13:10.988Z,97803.22
2018-10-19T23:15:39.240Z,97806.84
2018-10-19T23:18:07.565Z,97811.64
2018-10-19T23:20:35.863Z,97810.45
2018-10-19T23:23:04.233Z,97813.96
2018-10-19T23:25:32.508Z,97809.20
2018-10-19T23:28:00.804Z,97815.88
2018-10-19T23:30:29.116Z,97815.92
2018-10-19T23:32:57.542Z,97818.93
2018-10-19T23:35:25.829Z,97813.43
2018-10-19T23:37:54.108Z,97808.13
2018-10-19T23:40:22.432Z,97804.22
2018-10-19T23:42:50.716Z,97808.91
2018-10-19T23:45:19.039Z,97809.00
2018-10-19T23:47:47.351Z,97806.32
2018-10-19T23:50:15.667Z,97805.06
2018-10-19T23:52:43.938Z,97815.41
2018-10-19T23:55:12.535Z,97809.98
2018-10-19T23:57:40.771Z,97805.82
